Time;durP1;ratioP1;P1;durP2;ratioP2;P2;SDS_P1;SDS_P2;PMS_P1;PMS_P2;Temp;Humidity;BMP_temperature;BMP_pressure;BME280_temperature;BME280_humidity;BME280_pressure;Samples;Min_cycle;Max_cycle;Signal;HPM_P1;HPM_P2
2024/04/02 00:01:12;;;;;;;;;;;;;;;14.41;55.63;96586.36;105926;1257;72458;-40
2024/04/02 00:03:41;;;;;;;;;;;;;;;14.33;55.76;96585.87;105617;1256;62057;-41
2024/04/02 00:06:08;;;;;;;;;;;;;;;14.23;56.36;96591.66;105861;1257;62514;-40
2024/04/02 00:08:36;;;;;;;;;;;;;;;14.12;56.60;96592.07;105925;1255;75301;-40
2024/04/02 00:11:04;;;;;;;;;;;;;;;14.03;56.69;96588.69;105997;1257;66047;-39
2024/04/02 00:13:31;;;;;;;;;;;;;;;13.98;56.77;96583.70;105946;1254;73088;-38
2024/04/02 00:15:58;;;;;;;;;;;;;;;13.96;56.86;96584.27;105931;1257;62148;-39
2024/04/02 00:18:25;;;;;;;;;;;;;;;13.96;56.79;96582.11;105938;1251;62044;-40
2024/04/02 00:20:52;;;;;;;;;;;;;;;13.97;56.78;96582.12;105958;1257;75432;-40
2024/04/02 00:23:19;;;;;;;;;;;;;;;13.97;56.77;96574.82;105951;1254;66241;-38
2024/04/02 00:25:47;;;;;;;;;;;;;;;13.95;56.95;96574.69;105974;1254;72271;-39
2024/04/02 00:28:14;;;;;;;;;;;;;;;13.92;56.86;96569.88;105664;1258;62046;-39
2024/04/02 00:30:41;;;;;;;;;;;;;;;13.92;56.71;96566.86;105649;1254;62077;-40
2024/04/02 00:33:08;;;;;;;;;;;;;;;13.94;56.56;96558.69;105726;1256;75322;-40
2024/04/02 00:35:35;;;;;;;;;;;;;;;13.98;56.13;96551.08;105713;1255;66665;-40
2024/04/02 00:38:02;;;;;;;;;;;;;;;14.03;56.85;96550.82;105763;1256;72492;-40
2024/04/02 00:40:29;;;;;;;;;;;;;;;14.00;57.20;96545.52;105846;1257;62025;-40
2024/04/02 00:43:04;;;;;;;;;;;;;;;13.94;57.45;96545.23;105865;1252;62082;-38
2024/04/02 00:45:31;;;;;;;;;;;;;;;13.88;57.57;96539.98;106086;1255;73248;-39
2024/04/02 00:47:58;;;;;;;;;;;;;;;13.83;57.58;96532.65;105878;1258;66278;-37
2024/04/02 00:50:25;;;;;;;;;;;;;;;13.80;57.92;96531.09;105913;1251;72592;-39
2024/04/02 00:52:52;;;;;;;;;;;;;;;13.75;58.03;96528.89;105732;1256;62025;-38
2024/04/02 00:55:19;;;;;;;;;;;;;;;13.70;58.15;96523.33;106068;1256;62112;-38
2024/04/02 00:57:46;;;;;;;;;;;;;;;13.66;58.11;96517.98;105677;1257;74328;-39
2024/04/02 01:00:14;;;;;;;;;;;;;;;13.63;58.55;96518.12;105697;1257;65496;-40
2024/04/02 01:02:41;;;;;;;;;;;;;;;13.56;58.81;96515.58;105748;1254;72292;-38
2024/04/02 01:05:08;;;;;;;;;;;;;;;13.51;58.66;96511.42;105659;1257;62036;-38
2024/04/02 01:07:36;;;;;;;;;;;;;;;13.49;58.88;96508.40;105894;1254;62254;-40
2024/04/02 01:10:03;;;;;;;;;;;;;;;13.46;58.96;96506.39;105830;1257;74411;-41
2024/04/02 01:12:30;;;;;;;;;;;;;;;13.45;59.07;96507.67;105780;1254;66211;-43
2024/04/02 01:14:57;;;;;;;;;;;;;;;13.44;59.14;96505.17;105948;1254;72536;-39
2024/04/02 01:17:24;;;;;;;;;;;;;;;13.42;58.92;96504.14;106002;1258;62134;-39
2024/04/02 01:19:51;;;;;;;;;;;;;;;13.42;58.60;96502.61;105818;1253;62124;-39
2024/04/02 01:22:18;;;;;;;;;;;;;;;13.46;58.65;96501.23;105690;1257;74349;-37
2024/04/02 01:24:47;;;;;;;;;;;;;;;13.48;58.59;96496.58;105866;1256;66133;-38
2024/04/02 01:27:14;;;;;;;;;;;;;;;13.49;58.48;96493.27;105902;1254;71501;-39
2024/04/02 01:29:41;;;;;;;;;;;;;;;13.48;59.39;96491.23;105829;1256;62004;-39
2024/04/02 01:32:08;;;;;;;;;;;;;;;13.41;59.15;96488.66;105899;1254;62146;-40
2024/04/02 01:34:35;;;;;;;;;;;;;;;13.36;59.20;96488.98;105596;1254;75147;-40
2024/04/02 01:37:03;;;;;;;;;;;;;;;13.31;59.26;96488.62;105815;1252;66013;-38
2024/04/02 01:39:30;;;;;;;;;;;;;;;13.28;58.95;96480.87;105739;1251;72346;-43
2024/04/02 01:41:57;;;;;;;;;;;;;;;13.31;58.65;96474.63;105783;1257;61972;-38
2024/04/02 01:44:24;;;;;;;;;;;;;;;13.33;59.05;96468.69;105804;1253;62184;-41
2024/04/02 01:46:51;;;;;;;;;;;;;;;13.33;59.07;96465.93;105935;1256;75417;-40
2024/04/02 01:49:18;;;;;;;;;;;;;;;13.34;58.97;96464.48;105917;1256;65823;-38
2024/04/02 01:51:45;;;;;;;;;;;;;;;13.35;58.84;96462.68;105756;1251;72785;-38
2024/04/02 01:54:12;;;;;;;;;;;;;;;13.38;58.55;96458.23;105708;1257;62060;-38
2024/04/02 01:56:39;;;;;;;;;;;;;;;13.43;58.22;96449.89;105815;1251;62196;-37
2024/04/02 01:59:06;;;;;;;;;;;;;;;13.47;57.95;96448.40;105549;1257;75128;-37
2024/04/02 02:01:33;;;;;;;;;;;;;;;13.51;57.87;96441.80;105723;1256;66015;-38
2024/04/02 02:04:00;;;;;;;;;;;;;;;13.54;57.65;96437.05;105520;1254;72645;-37
2024/04/02 02:06:27;;;;;;;;;;;;;;;13.55;57.76;96432.39;105640;1256;62434;-38
2024/04/02 02:08:56;;;;;;;;;;;;;;;13.52;58.00;96427.55;105664;1253;62146;-38
2024/04/02 02:11:23;;;;;;;;;;;;;;;13.47;58.81;96427.96;105831;1257;75101;-46
2024/04/02 02:13:50;;;;;;;;;;;;;;;13.34;59.70;96422.71;105604;1256;66481;-40
2024/04/02 02:16:17;;;;;;;;;;;;;;;13.19;59.65;96417.69;105596;1254;73615;-41
2024/04/02 02:18:44;;;;;;;;;;;;;;;13.15;59.35;96417.20;105612;1257;62059;-39
2024/04/02 02:21:11;;;;;;;;;;;;;;;13.20;59.20;96413.89;105781;1257;62594;-39
2024/04/02 02:23:40;;;;;;;;;;;;;;;13.29;59.08;96411.20;105818;1256;74636;-38
2024/04/02 02:26:07;;;;;;;;;;;;;;;13.34;58.80;96404.56;105791;1257;66203;-38
2024/04/02 02:28:35;;;;;;;;;;;;;;;13.35;58.93;96401.61;105809;1252;72551;-38
2024/04/02 02:31:02;;;;;;;;;;;;;;;13.36;58.80;96398.09;105616;1254;62118;-40
2024/04/02 02:33:29;;;;;;;;;;;;;;;13.35;58.76;96393.45;105654;1255;62068;-38
2024/04/02 02:35:56;;;;;;;;;;;;;;;13.34;58.85;96391.52;105797;1254;75159;-39
2024/04/02 02:38:23;;;;;;;;;;;;;;;13.32;58.93;96389.08;105813;1251;64931;-37
2024/04/02 02:40:50;;;;;;;;;;;;;;;13.30;59.01;96385.79;105895;1251;72399;-38
2024/04/02 02:43:17;;;;;;;;;;;;;;;13.28;58.94;96384.59;105789;1257;61986;-41
2024/04/02 02:45:51;;;;;;;;;;;;;;;13.27;59.02;96379.41;105724;1251;62070;-39
2024/04/02 02:48:18;;;;;;;;;;;;;;;13.28;58.91;96376.05;105840;1257;74486;-40
2024/04/02 02:50:45;;;;;;;;;;;;;;;13.27;59.50;96377.72;105740;1251;66471;-40
2024/04/02 02:53:12;;;;;;;;;;;;;;;13.19;59.55;96374.30;105709;1251;72621;-37
2024/04/02 02:55:41;;;;;;;;;;;;;;;13.15;59.73;96370.27;105897;1257;62038;-39
2024/04/02 02:58:08;;;;;;;;;;;;;;;13.11;60.07;96364.26;105813;1256;62481;-38
2024/04/02 03:00:38;;;;;;;;;;;;;;;13.05;60.30;96355.48;105758;1257;75067;-38
2024/04/02 03:03:05;;;;;;;;;;;;;;;12.98;60.41;96351.52;105881;1254;66221;-37
2024/04/02 03:05:32;;;;;;;;;;;;;;;12.96;60.39;96345.48;105770;1252;72280;-38
2024/04/02 03:08:00;;;;;;;;;;;;;;;12.95;60.44;96344.08;105668;1257;61961;-38
2024/04/02 03:10:27;;;;;;;;;;;;;;;12.96;60.47;96339.79;105748;1253;62094;-37
2024/04/02 03:12:55;;;;;;;;;;;;;;;12.98;60.20;96331.27;105740;1257;75177;-39
2024/04/02 03:15:22;;;;;;;;;;;;;;;13.00;60.63;96329.70;105950;1257;65651;-41
2024/04/02 03:17:49;;;;;;;;;;;;;;;12.96;60.75;96330.67;105709;1254;72266;-39
2024/04/02 03:20:16;;;;;;;;;;;;;;;12.91;60.82;96326.02;106108;1256;62501;-40
2024/04/02 03:22:44;;;;;;;;;;;;;;;12.86;61.34;96321.73;106007;1254;62155;-40
2024/04/02 03:25:11;;;;;;;;;;;;;;;12.76;61.92;96318.62;105910;1256;75090;-40
2024/04/02 03:27:38;;;;;;;;;;;;;;;12.63;62.73;96317.96;105943;1254;67065;-40
2024/04/02 03:30:06;;;;;;;;;;;;;;;12.50;63.41;96314.98;105790;1256;72541;-41
2024/04/02 03:32:33;;;;;;;;;;;;;;;12.34;63.93;96314.25;105632;1256;62091;-41
2024/04/02 03:35:00;;;;;;;;;;;;;;;12.24;64.11;96310.00;105656;1254;62062;-38
2024/04/02 03:37:27;;;;;;;;;;;;;;;12.20;64.16;96306.80;105573;1257;75479;-40
2024/04/02 03:39:54;;;;;;;;;;;;;;;12.16;64.74;96306.00;105722;1255;65127;-40
2024/04/02 03:42:21;;;;;;;;;;;;;;;12.09;65.21;96301.73;105726;1251;72443;-40
2024/04/02 03:44:48;;;;;;;;;;;;;;;11.98;65.99;96296.58;105816;1257;62070;-38
2024/04/02 03:47:15;;;;;;;;;;;;;;;11.83;66.58;96294.05;105807;1252;62145;-40
2024/04/02 03:49:44;;;;;;;;;;;;;;;11.67;67.32;96292.34;105746;1255;75573;-39
2024/04/02 03:52:11;;;;;;;;;;;;;;;11.52;68.07;96292.04;105790;1251;66174;-40
2024/04/02 03:54:39;;;;;;;;;;;;;;;11.42;68.73;96287.73;105691;1255;72708;-43
2024/04/02 03:57:06;;;;;;;;;;;;;;;11.33;69.22;96288.30;105649;1251;62124;-43
2024/04/02 03:59:34;;;;;;;;;;;;;;;11.24;69.77;96288.46;105691;1251;62142;-39
2024/04/02 04:02:01;;;;;;;;;;;;;;;11.18;70.43;96289.71;105799;1257;75380;-37
2024/04/02 04:04:29;;;;;;;;;;;;;;;11.12;71.08;96292.75;105791;1254;65893;-42
2024/04/02 04:06:56;;;;;;;;;;;;;;;11.06;71.71;96287.09;105793;1254;73582;-39
2024/04/02 04:09:25;;;;;;;;;;;;;;;11.00;72.23;96286.16;105864;1255;62040;-39
2024/04/02 04:11:53;;;;;;;;;;;;;;;10.94;72.44;96279.00;105905;1253;62125;-39
2024/04/02 04:14:20;;;;;;;;;;;;;;;10.97;72.03;96277.48;105825;1256;75098;-38
2024/04/02 04:16:47;;;;;;;;;;;;;;;11.06;71.87;96270.95;105919;1257;65483;-40
2024/04/02 04:19:14;;;;;;;;;;;;;;;11.17;71.34;96268.79;105724;1254;72626;-39
2024/04/02 04:21:41;;;;;;;;;;;;;;;11.29;71.14;96268.17;105644;1256;62037;-40
2024/04/02 04:24:08;;;;;;;;;;;;;;;11.40;70.66;96269.13;105834;1254;62117;-41
2024/04/02 04:26:35;;;;;;;;;;;;;;;11.49;70.10;96265.80;105977;1252;75167;-41
2024/04/02 04:29:02;;;;;;;;;;;;;;;11.58;69.51;96262.49;106005;1253;65970;-41
2024/04/02 04:31:29;;;;;;;;;;;;;;;11.68;69.26;96253.90;105793;1254;72340;-42
2024/04/02 04:33:56;;;;;;;;;;;;;;;11.76;68.97;96242.29;105818;1256;62110;-40
2024/04/02 04:36:23;;;;;;;;;;;;;;;11.84;68.60;96234.30;105933;1252;62158;-40
2024/04/02 04:38:50;;;;;;;;;;;;;;;11.91;68.31;96228.39;105682;1256;75070;-40
2024/04/02 04:41:17;;;;;;;;;;;;;;;11.97;67.90;96226.25;105691;1256;66048;-40
2024/04/02 04:43:45;;;;;;;;;;;;;;;12.04;67.99;96223.14;105735;1257;72582;-39
2024/04/02 04:46:12;;;;;;;;;;;;;;;12.04;68.31;96218.09;105946;1256;61954;-39
2024/04/02 04:48:40;;;;;;;;;;;;;;;11.98;68.86;96218.00;105886;1254;62122;-40
2024/04/02 04:51:07;;;;;;;;;;;;;;;11.91;69.05;96214.05;105738;1254;75621;-40
2024/04/02 04:53:34;;;;;;;;;;;;;;;11.87;69.47;96212.71;105660;1254;66121;-40
2024/04/02 04:56:01;;;;;;;;;;;;;;;11.82;70.02;96212.27;105708;1254;72319;-40
2024/04/02 04:58:29;;;;;;;;;;;;;;;11.74;70.53;96211.64;105796;1254;62050;-41
2024/04/02 05:00:56;;;;;;;;;;;;;;;11.65;70.87;96206.33;105817;1254;62060;-40
2024/04/02 05:03:23;;;;;;;;;;;;;;;11.62;71.19;96195.95;105675;1257;75419;-39
2024/04/02 05:06:02;;;;;;;;;;;;;;;11.62;71.40;96189.73;105826;1255;66046;-38
2024/04/02 05:08:30;;;;;;;;;;;;;;;11.62;71.60;96184.31;105666;1254;72510;-36
2024/04/02 05:10:57;;;;;;;;;;;;;;;11.64;71.40;96180.59;105672;1254;62040;-38
2024/04/02 05:13:25;;;;;;;;;;;;;;;11.69;71.39;96176.55;105678;1254;62129;-38
2024/04/02 05:15:52;;;;;;;;;;;;;;;11.77;71.17;96165.52;105632;1253;76448;-39
2024/04/02 05:18:19;;;;;;;;;;;;;;;11.87;70.66;96152.47;105574;1257;66268;-37
2024/04/02 05:20:46;;;;;;;;;;;;;;;11.97;70.40;96145.48;105614;1254;73080;-38
2024/04/02 05:23:13;;;;;;;;;;;;;;;12.08;69.88;96136.46;105845;1257;62072;-39
2024/04/02 05:25:40;;;;;;;;;;;;;;;12.17;69.54;96130.73;105694;1254;62046;-37
2024/04/02 05:28:08;;;;;;;;;;;;;;;12.26;69.41;96131.80;105705;1256;75222;-37
2024/04/02 05:30:35;;;;;;;;;;;;;;;12.35;69.13;96135.02;105645;1252;66435;-38
2024/04/02 05:33:03;;;;;;;;;;;;;;;12.49;68.46;96127.61;105820;1254;71533;-38
2024/04/02 05:35:31;;;;;;;;;;;;;;;12.68;67.18;96127.77;105614;1257;62063;-35
2024/04/02 05:37:58;;;;;;;;;;;;;;;12.89;66.03;96128.20;105658;1254;62005;-35
2024/04/02 05:40:25;;;;;;;;;;;;;;;13.10;64.67;96127.38;105811;1254;75162;-38
2024/04/02 05:42:52;;;;;;;;;;;;;;;13.25;64.17;96122.88;105440;1254;66262;-37
2024/04/02 05:45:19;;;;;;;;;;;;;;;13.37;64.13;96120.68;105562;1254;72586;-36
2024/04/02 05:47:46;;;;;;;;;;;;;;;13.45;63.85;96123.47;105818;1256;63505;-37
2024/04/02 05:50:15;;;;;;;;;;;;;;;13.51;63.41;96122.91;105978;1253;62676;-37
2024/04/02 05:52:42;;;;;;;;;;;;;;;13.58;63.15;96116.98;105561;1256;75364;-35
2024/04/02 05:55:09;;;;;;;;;;;;;;;13.65;63.37;96112.95;105432;1257;64554;-36
2024/04/02 05:57:37;;;;;;;;;;;;;;;13.71;63.18;96110.39;105466;1254;73472;-37
2024/04/02 06:00:05;;;;;;;;;;;;;;;13.77;63.58;96108.88;105549;1254;62026;-36
2024/04/02 06:02:39;;;;;;;;;;;;;;;13.84;63.90;96108.30;105459;1257;61999;-35
2024/04/02 06:05:07;;;;;;;;;;;;;;;13.92;63.91;96108.55;106407;1254;75721;-37
2024/04/02 06:07:35;;;;;;;;;;;;;;;13.98;63.74;96107.27;105782;1254;67131;-37
2024/04/02 06:10:02;;;;;;;;;;;;;;;14.03;63.72;96101.84;105452;1252;72253;-38
2024/04/02 06:12:29;;;;;;;;;;;;;;;14.10;63.66;96096.96;105525;1257;62037;-37
2024/04/02 06:14:56;;;;;;;;;;;;;;;14.17;63.61;96092.16;105331;1254;62024;-36
2024/04/02 06:17:23;;;;;;;;;;;;;;;14.24;63.77;96089.43;105506;1254;76336;-36
2024/04/02 06:19:50;;;;;;;;;;;;;;;14.32;63.57;96084.23;105374;1254;66105;-36
2024/04/02 06:22:18;;;;;;;;;;;;;;;14.41;63.42;96079.91;109408;1252;72521;-37
2024/04/02 06:24:45;;;;;;;;;;;;;;;14.50;63.34;96072.81;108047;1253;62053;-36
2024/04/02 06:27:13;;;;;;;;;;;;;;;14.60;63.33;96070.67;105962;1254;62085;-37
2024/04/02 06:29:40;;;;;;;;;;;;;;;14.71;63.65;96066.52;105666;1256;76311;-37
2024/04/02 06:32:09;;;;;;;;;;;;;;;14.82;63.25;96062.06;105365;1257;66891;-37
2024/04/02 06:34:36;;;;;;;;;;;;;;;14.93;63.38;96055.67;105665;1254;72462;-38
2024/04/02 06:37:03;;;;;;;;;;;;;;;15.05;63.67;96049.69;105595;1254;62035;-37
2024/04/02 06:39:30;;;;;;;;;;;;;;;15.18;63.30;96043.29;105719;1253;61983;-38
2024/04/02 06:41:58;;;;;;;;;;;;;;;15.31;63.34;96043.55;105610;1254;74611;-38
2024/04/02 06:44:26;;;;;;;;;;;;;;;15.46;63.08;96040.89;105361;1256;66725;-37
2024/04/02 06:46:53;;;;;;;;;;;;;;;15.60;62.50;96029.66;105418;1254;75111;-38
2024/04/02 06:49:20;;;;;;;;;;;;;;;15.74;62.17;96019.08;105440;1256;62062;-35
2024/04/02 06:51:48;;;;;;;;;;;;;;;15.87;62.07;96011.19;105733;1251;62175;-35
2024/04/02 06:54:15;;;;;;;;;;;;;;;16.00;61.86;96010.01;105421;1254;75166;-37
2024/04/02 06:56:43;;;;;;;;;;;;;;;16.13;61.62;96006.73;105229;1257;65923;-38
2024/04/02 06:59:10;;;;;;;;;;;;;;;16.26;61.74;96003.27;105401;1254;73414;-35
2024/04/02 07:01:37;;;;;;;;;;;;;;;16.39;61.61;95997.69;105552;1256;62034;-36
2024/04/02 07:04:07;;;;;;;;;;;;;;;16.54;60.85;95995.95;105627;1254;62452;-38
2024/04/02 07:06:34;;;;;;;;;;;;;;;16.70;59.78;95991.66;105563;1257;75960;-36
2024/04/02 07:09:03;;;;;;;;;;;;;;;16.89;58.99;95987.91;105499;1255;67130;-36
2024/04/02 07:11:30;;;;;;;;;;;;;;;17.09;57.73;95984.98;105277;1257;72488;-36
2024/04/02 07:13:57;;;;;;;;;;;;;;;17.26;57.11;95984.44;105156;1253;61932;-37
2024/04/02 07:16:24;;;;;;;;;;;;;;;17.42;56.82;95985.89;105377;1254;62748;-38
2024/04/02 07:18:51;;;;;;;;;;;;;;;17.58;56.63;95983.41;108293;1253;76138;-40
2024/04/02 07:21:19;;;;;;;;;;;;;;;17.70;56.88;95982.76;105378;1256;65783;-39
2024/04/02 07:23:46;;;;;;;;;;;;;;;17.82;57.13;95975.66;105391;1251;72543;-38
2024/04/02 07:26:13;;;;;;;;;;;;;;;17.92;57.25;95967.30;105627;1255;62254;-37
2024/04/02 07:28:41;;;;;;;;;;;;;;;18.01;57.13;95963.77;105512;1254;62124;-39
2024/04/02 07:31:08;;;;;;;;;;;;;;;18.09;56.35;95963.61;105473;1256;76182;-39
2024/04/02 07:33:35;;;;;;;;;;;;;;;18.21;55.52;95967.24;105700;1253;65928;-39
2024/04/02 07:36:06;;;;;;;;;;;;;;;18.34;54.81;95962.51;105688;1254;73522;-39
2024/04/02 07:38:34;;;;;;;;;;;;;;;18.48;53.22;95960.89;105428;1252;62038;-39
2024/04/02 07:41:01;;;;;;;;;;;;;;;18.63;52.27;95960.11;105373;1253;61919;-36
2024/04/02 07:43:28;;;;;;;;;;;;;;;18.77;51.48;95964.02;105304;1256;76241;-37
2024/04/02 07:45:55;;;;;;;;;;;;;;;18.88;49.65;95960.83;105355;1254;67254;-39
2024/04/02 07:48:23;;;;;;;;;;;;;;;19.00;48.02;95966.14;105250;1254;72554;-39
2024/04/02 07:50:51;;;;;;;;;;;;;;;19.11;45.82;95963.15;105310;1254;61963;-39
2024/04/02 07:53:20;;;;;;;;;;;;;;;19.25;45.28;95961.62;105121;1255;60835;-43
2024/04/02 07:55:50;;;;;;;;;;;;;;;19.36;44.98;95961.27;105517;1254;75066;-40
2024/04/02 07:58:22;;;;;;;;;;;;;;;19.45;43.78;95958.61;106043;1256;66080;-41
2024/04/02 08:00:51;;;;;;;;;;;;;;;19.54;43.61;95953.81;105772;1255;73125;-38
2024/04/02 08:03:23;;;;;;;;;;;;;;;19.61;42.67;95950.84;105527;1260;62048;-39
2024/04/02 08:05:57;;;;;;;;;;;;;;;19.68;42.54;95944.05;105416;1254;62316;-38
2024/04/02 08:08:28;;;;;;;;;;;;;;;19.75;42.27;95949.90;107496;1253;74298;-38
2024/04/02 08:11:00;;;;;;;;;;;;;;;19.83;42.22;95960.17;105683;1257;66677;-41
2024/04/02 08:13:31;;;;;;;;;;;;;;;19.87;42.05;95967.35;105701;1256;73658;-38
2024/04/02 08:16:00;;;;;;;;;;;;;;;19.90;42.16;95970.30;105678;1254;62124;-40
2024/04/02 08:18:32;;;;;;;;;;;;;;;19.97;43.07;95965.75;105865;1254;61878;-39
2024/04/02 08:21:00;;;;;;;;;;;;;;;20.06;42.59;95970.41;105981;1257;76072;-37
2024/04/02 08:23:27;;;;;;;;;;;;;;;20.18;41.07;95972.04;105467;1256;64974;-38
2024/04/02 08:26:28;;;;;;;;;;;;;;;20.30;39.69;95971.95;105355;1257;72178;-37
2024/04/02 08:32:36;;;;;;;;;;;;;;;20.78;39.03;95971.91;106616;1251;62155;-41
2024/04/02 08:35:04;;;;;;;;;;;;;;;20.94;36.31;95982.54;105202;1255;76143;-38
2024/04/02 08:37:32;;;;;;;;;;;;;;;21.05;35.94;95975.84;106544;1258;67035;-39
2024/04/02 08:39:59;;;;;;;;;;;;;;;21.14;36.49;95981.90;106527;1254;73020;-40
2024/04/02 08:42:27;;;;;;;;;;;;;;;21.21;35.76;95994.11;105327;1259;62550;-41
2024/04/02 08:44:56;;;;;;;;;;;;;;;21.25;35.85;96000.73;105540;1257;62127;-41
2024/04/02 08:47:26;;;;;;;;;;;;;;;21.27;35.97;96001.66;105717;1254;76625;-41
2024/04/02 08:49:54;;;;;;;;;;;;;;;21.30;36.18;96000.67;105321;1254;66173;-43
2024/04/02 08:52:21;;;;;;;;;;;;;;;21.37;36.84;96004.10;105368;1262;73395;-41
2024/04/02 08:54:52;;;;;;;;;;;;;;;21.38;38.02;96005.55;106558;1248;61947;31
2024/04/02 08:57:20;;;;;;;;;;;;;;;21.26;38.78;96013.73;105038;1257;62105;-40
2024/04/02 08:59:47;;;;;;;;;;;;;;;21.17;39.03;96026.89;105022;1261;76062;-41
2024/04/02 09:02:14;;;;;;;;;;;;;;;21.15;38.88;96023.80;105296;1260;64724;-40
2024/04/02 09:04:41;;;;;;;;;;;;;;;21.13;38.61;96020.94;104948;1256;73439;-39
2024/04/02 09:07:08;;;;;;;;;;;;;;;21.01;38.23;96022.92;106494;1260;62102;-38
2024/04/02 09:09:38;;;;;;;;;;;;;;;20.81;38.75;96030.34;105183;1256;62073;-41
2024/04/02 09:12:07;;;;;;;;;;;;;;;20.67;38.83;96042.43;105327;1257;75459;-41
2024/04/02 09:14:38;;;;;;;;;;;;;;;20.52;38.27;96059.10;105240;1261;66927;-41
2024/04/02 09:17:08;;;;;;;;;;;;;;;20.26;38.58;96055.09;105375;1257;73345;-41
2024/04/02 09:19:35;;;;;;;;;;;;;;;20.02;38.58;96074.23;105142;1261;62165;-40
2024/04/02 09:22:02;;;;;;;;;;;;;;;19.80;38.48;96070.47;105426;1256;62048;-40
2024/04/02 09:24:30;;;;;;;;;;;;;;;19.62;38.38;96077.77;105319;1259;76445;-39
2024/04/02 09:26:57;;;;;;;;;;;;;;;19.49;37.89;96076.73;105072;1260;66985;-41
2024/04/02 09:29:24;;;;;;;;;;;;;;;19.35;37.73;96084.67;105079;1257;73405;-39
2024/04/02 09:31:52;;;;;;;;;;;;;;;19.24;37.90;96078.71;105839;1260;62038;-41
2024/04/02 09:34:20;;;;;;;;;;;;;;;19.18;38.09;96091.36;105176;1256;62192;-40
2024/04/02 09:36:49;;;;;;;;;;;;;;;19.10;38.20;96086.11;105261;1258;74493;-40
2024/04/02 09:39:17;;;;;;;;;;;;;;;19.03;38.76;96093.25;105327;1261;67124;-41
2024/04/02 09:41:44;;;;;;;;;;;;;;;18.93;38.92;96088.14;105264;1256;73524;-39
2024/04/02 09:44:28;;;;;;;;;;;;;;;18.84;39.05;96086.60;105679;1257;62129;-39
2024/04/02 09:46:58;;;;;;;;;;;;;;;18.78;38.99;96095.21;105425;1257;62186;-40
2024/04/02 09:49:25;;;;;;;;;;;;;;;18.66;39.03;96084.13;105422;1259;75983;-41
2024/04/02 09:51:56;;;;;;;;;;;;;;;18.54;39.28;96082.20;105421;1256;67139;-42
2024/04/02 09:54:23;;;;;;;;;;;;;;;18.45;39.88;96080.24;105307;1257;73510;-38
2024/04/02 09:56:51;;;;;;;;;;;;;;;18.38;40.29;96086.80;105259;1256;62049;-40
2024/04/02 09:59:23;;;;;;;;;;;;;;;18.30;40.90;96106.61;105181;1257;61174;-43
2024/04/02 10:01:59;;;;;;;;;;;;;;;18.07;41.52;96115.54;105157;1266;77105;-40
2024/04/02 10:04:28;;;;;;;;;;;;;;;17.85;42.22;96123.89;105357;1260;66261;-39
2024/04/02 10:07:03;;;;;;;;;;;;;;;17.62;42.62;96128.45;105334;1260;72233;-41
2024/04/02 10:09:43;;;;;;;;;;;;;;;17.44;43.37;96124.61;104972;1267;62136;-38
2024/04/02 10:12:10;;;;;;;;;;;;;;;17.31;44.03;96116.81;105554;1256;62124;-39
2024/04/02 10:14:37;;;;;;;;;;;;;;;17.20;44.73;96106.92;105255;1258;74219;-37
2024/04/02 10:17:12;;;;;;;;;;;;;;;17.10;45.27;96102.00;104850;1262;66283;-39
2024/04/02 10:19:42;;;;;;;;;;;;;;;16.91;45.54;96101.11;107309;1256;72798;-38
2024/04/02 10:22:10;;;;;;;;;;;;;;;16.80;46.55;96100.32;105370;1260;62041;-49
2024/04/02 10:24:38;;;;;;;;;;;;;;;16.76;47.27;96105.39;105068;1256;61936;-40
2024/04/02 10:27:09;;;;;;;;;;;;;;;16.74;47.21;96116.67;108962;1256;76144;-41
2024/04/02 10:29:36;;;;;;;;;;;;;;;16.76;46.50;96122.92;106686;1260;65897;-42
2024/04/02 10:32:03;;;;;;;;;;;;;;;16.77;46.58;96134.38;105110;1260;72604;-40
2024/04/02 10:34:32;;;;;;;;;;;;;;;16.73;46.67;96137.13;106992;1260;62197;-43
2024/04/02 10:37:02;;;;;;;;;;;;;;;16.68;45.79;96173.60;105485;1257;61964;-43
2024/04/02 10:39:33;;;;;;;;;;;;;;;16.53;45.63;96165.73;106276;1257;75246;-44
2024/04/02 10:42:04;;;;;;;;;;;;;;;16.38;44.77;96177.84;105606;1259;66854;-43
2024/04/02 10:44:31;;;;;;;;;;;;;;;16.19;44.35;96183.04;105354;1257;71023;-45
2024/04/02 10:47:01;;;;;;;;;;;;;;;15.98;44.78;96178.08;105417;1261;62165;-44
2024/04/02 10:49:28;;;;;;;;;;;;;;;15.80;45.19;96197.61;105410;1257;62062;-44
2024/04/02 10:52:02;;;;;;;;;;;;;;;15.68;45.53;96204.02;105241;1258;76408;-44
2024/04/02 10:54:30;;;;;;;;;;;;;;;15.53;45.83;96204.95;105405;1261;65246;-44
2024/04/02 10:56:57;;;;;;;;;;;;;;;15.40;46.92;96206.04;105463;1256;73497;-44
2024/04/02 10:59:24;;;;;;;;;;;;;;;15.27;48.84;96213.80;105463;1260;62047;-44
2024/04/02 11:01:53;;;;;;;;;;;;;;;15.07;50.69;96213.71;105300;1256;62082;-44
2024/04/02 11:04:20;;;;;;;;;;;;;;;14.74;52.71;96221.64;105545;1256;76202;-45
2024/04/02 11:06:47;;;;;;;;;;;;;;;14.43;54.98;96223.78;105272;1256;66257;-44
2024/04/02 11:09:15;;;;;;;;;;;;;;;14.18;56.94;96227.34;105296;1257;73138;-47
2024/04/02 11:11:44;;;;;;;;;;;;;;;13.94;59.54;96230.48;105348;1257;62131;-45
2024/04/02 11:14:12;;;;;;;;;;;;;;;13.72;61.73;96234.70;105191;1256;62041;-43
2024/04/02 11:16:39;;;;;;;;;;;;;;;13.53;63.56;96235.60;105674;1256;74318;-45
2024/04/02 11:19:08;;;;;;;;;;;;;;;13.40;65.08;96232.67;104824;1265;395596;-43
2024/04/02 11:21:37;;;;;;;;;;;;;;;13.26;66.79;96228.76;105355;1257;73382;-45
2024/04/02 11:26:50;;;;;;;;;;;;;;;13.05;69.45;96216.98;105285;1256;62174;-44
2024/04/02 11:29:20;;;;;;;;;;;;;;;12.93;70.50;96214.89;105131;1262;76251;-42
2024/04/02 11:31:47;;;;;;;;;;;;;;;12.77;71.48;96210.88;105408;1260;66087;-43
2024/04/02 11:34:14;;;;;;;;;;;;;;;12.65;72.58;96194.61;105472;1257;72680;-44
2024/04/02 11:36:41;;;;;;;;;;;;;;;12.59;72.94;96174.52;105187;1262;62140;-44
2024/04/02 11:39:10;;;;;;;;;;;;;;;12.57;73.85;96162.48;105204;1256;62042;-45
2024/04/02 11:41:41;;;;;;;;;;;;;;;12.58;74.61;96147.71;105021;1262;75911;-46
2024/04/02 11:44:11;;;;;;;;;;;;;;;12.63;75.43;96135.87;105413;1260;68208;-43
2024/04/02 11:46:39;;;;;;;;;;;;;;;12.71;75.70;96125.85;105207;1262;71432;-45
2024/04/02 11:49:08;;;;;;;;;;;;;;;12.80;76.51;96101.03;105414;1261;62061;-44
2024/04/02 11:51:36;;;;;;;;;;;;;;;12.87;76.85;96096.42;105371;1257;62159;-41
2024/04/02 11:54:04;;;;;;;;;;;;;;;12.94;77.34;96107.11;105120;1262;76327;-42
2024/04/02 12:00:01;;;;;;;;;;;;;;;13.02;78.15;96093.10;105299;1256;67242;-44
2024/04/02 12:02:05;;;;;;;;;;;;;;;13.21;78.79;96111.49;105215;1261;62088;-43
2024/04/02 12:04:32;;;;;;;;;;;;;;;13.24;79.09;96121.09;105269;1256;62063;-41
2024/04/02 12:06:59;;;;;;;;;;;;;;;13.27;79.52;96121.38;105323;1257;76231;-40
2024/04/02 12:09:26;;;;;;;;;;;;;;;13.31;79.74;96128.77;105296;1257;66597;-42
2024/04/02 12:11:53;;;;;;;;;;;;;;;13.37;80.22;96141.35;105345;1257;73403;-40
2024/04/02 12:14:23;;;;;;;;;;;;;;;13.39;80.67;96146.02;105102;1256;62175;-39
2024/04/02 12:16:50;;;;;;;;;;;;;;;13.40;80.16;96144.48;105032;1260;62492;-42
2024/04/02 12:19:17;;;;;;;;;;;;;;;13.45;79.85;96149.05;105186;1258;76386;-45
2024/04/02 12:21:45;;;;;;;;;;;;;;;13.53;79.97;96144.07;105298;1260;66809;-47
2024/04/02 12:24:13;;;;;;;;;;;;;;;13.63;79.89;96137.30;105347;1257;74828;-43
2024/04/02 12:26:40;;;;;;;;;;;;;;;13.73;80.05;96128.55;105355;1256;62050;-51
2024/04/02 12:29:07;;;;;;;;;;;;;;;13.84;80.26;96129.69;105351;1262;62850;-50
2024/04/02 12:31:35;;;;;;;;;;;;;;;13.95;79.38;96121.38;105384;1257;76276;-45
2024/04/02 12:34:02;;;;;;;;;;;;;;;14.03;78.51;96124.14;105301;1260;66196;-41
2024/04/02 12:36:29;;;;;;;;;;;;;;;14.07;77.82;96121.59;105349;1257;72927;-41
2024/04/02 12:38:57;;;;;;;;;;;;;;;14.11;77.82;96120.66;105441;1259;62073;-42
2024/04/02 12:41:24;;;;;;;;;;;;;;;14.07;77.04;96125.67;105339;1257;62083;-40
2024/04/02 12:43:51;;;;;;;;;;;;;;;13.95;76.52;96130.29;107903;1259;76193;-41
2024/04/02 12:46:19;;;;;;;;;;;;;;;13.80;75.54;96153.52;105435;1260;66380;-42
2024/04/02 12:48:47;;;;;;;;;;;;;;;13.65;75.55;96169.91;105164;1257;73865;-40